Time;durP1;ratioP1;P1;durP2;ratioP2;P2;SDS_P1;SDS_P2;PMS_P1;PMS_P2;Temp;Humidity;BMP_temperature;BMP_pressure;BME280_temperature;BME280_humidity;BME280_pressure;Samples;Min_cycle;Max_cycle;Signal;HPM_P1;HPM_P2
2021/09/20 00:01:50;;;;;;;;;;;12.60;99.90;;;;;;5074745;28;19924;-73
2021/09/20 00:04:17;;;;;;;;;;;12.60;99.90;;;;;;5074930;28;20015;-72
2021/09/20 00:06:44;;;;;;;;;;;12.50;99.90;;;;;;5075319;28;19924;-73
2021/09/20 00:09:11;;;;;;;;;;;12.50;99.90;;;;;;5075539;28;19931;-73
2021/09/20 00:11:43;;;;;;;;;;;12.50;99.90;;;;;;5075227;28;19927;-73
2021/09/20 00:14:14;;;;;;;;;;;12.50;99.90;;;;;;5058956;28;19924;-73
2021/09/20 00:16:46;;;;;;;;;;;12.50;99.90;;;;;;5075936;28;20394;-72
2021/09/20 00:19:17;;;;;;;;;;;12.50;99.90;;;;;;5093024;28;20405;-73
2021/09/20 00:21:49;;;;;;;;;;;12.50;99.90;;;;;;5075579;28;19931;-73
2021/09/20 00:24:21;;;;;;;;;;;12.50;99.90;;;;;;5058261;28;19931;-73
2021/09/20 00:26:47;;;;;;;;;;;12.50;99.90;;;;;;5075048;28;19924;-73
2021/09/20 00:29:14;;;;;;;;;;;12.50;99.90;;;;;;5074815;28;19967;-73
2021/09/20 00:31:46;;;;;;;;;;;12.50;99.90;;;;;;5059115;28;19924;-73
2021/09/20 00:34:12;;;;;;;;;;;12.50;99.90;;;;;;5092493;28;19928;-73
2021/09/20 00:36:39;;;;;;;;;;;12.50;99.90;;;;;;5074701;28;20316;-73
2021/09/20 00:39:11;;;;;;;;;;;12.50;99.90;;;;;;5075391;28;19924;-73
2021/09/20 00:41:37;;;;;;;;;;;12.50;99.90;;;;;;5074618;28;20351;-73
2021/09/20 00:44:09;;;;;;;;;;;12.50;99.90;;;;;;5074237;28;19946;-73
2021/09/20 00:46:36;;;;;;;;;;;12.50;99.90;;;;;;5092483;28;20366;-73
2021/09/20 00:49:03;;;;;;;;;;;12.50;99.90;;;;;;5074290;28;19982;-73
2021/09/20 00:51:29;;;;;;;;;;;12.50;99.90;;;;;;5074383;28;20012;-73
2021/09/20 00:53:56;;;;;;;;;;;12.60;99.90;;;;;;5074387;28;20039;-73
2021/09/20 00:56:23;;;;;;;;;;;12.60;99.90;;;;;;5073962;28;20026;-72
2021/09/20 00:58:55;;;;;;;;;;;12.60;99.90;;;;;;5074199;28;19930;-73
2021/09/20 01:01:22;;;;;;;;;;;12.60;99.90;;;;;;5091802;28;20019;-73
2021/09/20 01:03:54;;;;;;;;;;;12.60;99.90;;;;;;5091793;28;20306;-72
2021/09/20 01:06:25;;;;;;;;;;;12.60;99.90;;;;;;5073367;28;19931;-73
2021/09/20 01:08:57;;;;;;;;;;;12.50;99.90;;;;;;5074260;28;19934;-72
2021/09/20 01:11:29;;;;;;;;;;;12.50;99.90;;;;;;5092136;28;20023;-72
2021/09/20 01:14:01;;;;;;;;;;;12.40;99.90;;;;;;5074155;28;20405;-73
2021/09/20 01:16:28;;;;;;;;;;;12.50;99.90;;;;;;5091969;28;19924;-73
2021/09/20 01:19:00;;;;;;;;;;;12.50;99.90;;;;;;5091739;28;19924;-73
2021/09/20 01:21:31;;;;;;;;;;;12.50;99.90;;;;;;5091540;28;19924;-73
2021/09/20 01:24:03;;;;;;;;;;;12.50;99.90;;;;;;5073083;28;20031;-73
2021/09/20 01:26:35;;;;;;;;;;;12.50;99.90;;;;;;5074577;28;19930;-73
2021/09/20 01:29:07;;;;;;;;;;;12.50;99.90;;;;;;5073506;28;20283;-73
2021/09/20 01:31:33;;;;;;;;;;;12.60;99.90;;;;;;5074128;28;19928;-73
2021/09/20 01:34:05;;;;;;;;;;;12.50;99.90;;;;;;5091755;28;20378;-73
2021/09/20 01:36:37;;;;;;;;;;;12.50;99.90;;;;;;5078302;28;19926;-73
2021/09/20 01:39:16;;;;;;;;;;;12.50;99.90;;;;;;5095287;28;20014;-73
2021/09/20 01:41:43;;;;;;;;;;;12.40;99.90;;;;;;5096028;28;20364;-73
2021/09/20 01:44:10;;;;;;;;;;;12.40;99.90;;;;;;5095957;28;19969;-73
2021/09/20 01:46:46;;;;;;;;;;;12.40;99.90;;;;;;5077830;28;20015;-73
2021/09/20 01:49:19;;;;;;;;;;;12.40;99.90;;;;;;5077784;28;19931;-74
2021/09/20 01:51:50;;;;;;;;;;;12.30;99.90;;;;;;5061804;28;19924;-73
2021/09/20 01:54:17;;;;;;;;;;;12.30;99.90;;;;;;5077330;28;20026;-73
2021/09/20 01:56:49;;;;;;;;;;;12.30;99.90;;;;;;5095776;28;19924;-73
2021/09/20 01:59:21;;;;;;;;;;;12.30;99.90;;;;;;5078340;28;19924;-73
2021/09/20 02:01:52;;;;;;;;;;;12.30;99.90;;;;;;5077597;28;20249;-73
2021/09/20 02:04:24;;;;;;;;;;;12.30;99.90;;;;;;5061389;28;19924;-73
2021/09/20 02:06:51;;;;;;;;;;;12.30;99.90;;;;;;5077638;28;20394;-73
2021/09/20 02:09:17;;;;;;;;;;;12.30;99.90;;;;;;5077316;28;19924;-73
2021/09/20 02:11:44;;;;;;;;;;;12.30;99.90;;;;;;5095523;28;20006;-73
2021/09/20 02:14:11;;;;;;;;;;;12.30;99.90;;;;;;5077010;28;19923;-73
2021/09/20 02:16:42;;;;;;;;;;;12.30;99.90;;;;;;5095548;28;19927;-73
2021/09/20 02:19:15;;;;;;;;;;;12.30;99.90;;;;;;5078183;28;19924;-73
2021/09/20 02:21:46;;;;;;;;;;;12.30;99.90;;;;;;5061291;28;19924;-73
2021/09/20 02:24:18;;;;;;;;;;;12.30;99.90;;;;;;5076995;28;19924;-73
2021/09/20 02:26:45;;;;;;;;;;;12.30;99.90;;;;;;5077087;28;20007;-73
2021/09/20 02:29:16;;;;;;;;;;;12.40;99.90;;;;;;5095125;28;19931;-74
2021/09/20 02:31:48;;;;;;;;;;;12.40;99.90;;;;;;5061292;28;19930;-73
2021/09/20 02:34:15;;;;;;;;;;;12.40;99.90;;;;;;5095003;28;20030;-74
2021/09/20 02:36:41;;;;;;;;;;;12.30;99.90;;;;;;5077006;28;19930;-73
2021/09/20 02:39:13;;;;;;;;;;;12.40;99.90;;;;;;5060909;28;19928;-73
2021/09/20 02:41:40;;;;;;;;;;;12.40;99.90;;;;;;5094783;28;19924;-73
2021/09/20 02:44:12;;;;;;;;;;;12.40;99.90;;;;;;5060431;28;19928;-72
2021/09/20 02:46:44;;;;;;;;;;;12.40;99.90;;;;;;5076289;28;20065;-73
2021/09/20 02:49:10;;;;;;;;;;;12.40;99.90;;;;;;5076874;28;19946;-73
2021/09/20 02:51:37;;;;;;;;;;;12.40;99.90;;;;;;5076788;28;19946;-72
2021/09/20 02:54:09;;;;;;;;;;;12.40;99.90;;;;;;5077072;28;19924;-73
2021/09/20 02:56:41;;;;;;;;;;;12.40;99.90;;;;;;5077537;28;19924;-73
2021/09/20 02:59:08;;;;;;;;;;;12.40;99.90;;;;;;5076415;28;19931;-72
2021/09/20 03:01:39;;;;;;;;;;;12.40;99.90;;;;;;5077354;28;19930;-73
2021/09/20 03:04:06;;;;;;;;;;;12.30;99.90;;;;;;5094374;28;19924;-73
2021/09/20 03:06:32;;;;;;;;;;;12.40;99.90;;;;;;5094546;28;19934;-73
2021/09/20 03:09:04;;;;;;;;;;;12.40;99.90;;;;;;5076331;28;19928;-73
2021/09/20 03:11:31;;;;;;;;;;;12.40;99.90;;;;;;5076455;28;20010;-73
2021/09/20 03:14:02;;;;;;;;;;;12.40;99.90;;;;;;5076345;28;19930;-73
2021/09/20 03:16:34;;;;;;;;;;;12.40;99.90;;;;;;5094472;28;19942;-73
2021/09/20 03:19:00;;;;;;;;;;;12.40;99.90;;;;;;5076143;28;20023;-73
2021/09/20 03:21:32;;;;;;;;;;;12.40;99.90;;;;;;5076073;28;20353;-73
2021/09/20 03:24:04;;;;;;;;;;;12.50;99.90;;;;;;5075955;28;19971;-74
2021/09/20 03:26:36;;;;;;;;;;;12.40;99.90;;;;;;5094055;28;19930;-73
2021/09/20 03:29:08;;;;;;;;;;;12.50;99.90;;;;;;5092965;28;19963;-73
2021/09/20 03:31:35;;;;;;;;;;;12.50;99.90;;;;;;5094421;28;20010;-74
2021/09/20 03:34:02;;;;;;;;;;;12.50;99.90;;;;;;5075722;28;19930;-73
2021/09/20 03:36:29;;;;;;;;;;;12.40;99.90;;;;;;5075846;28;19924;-74
2021/09/20 03:39:01;;;;;;;;;;;12.50;99.90;;;;;;5093825;28;20031;-74
2021/09/20 03:41:33;;;;;;;;;;;12.50;99.90;;;;;;5076615;28;20014;-73
2021/09/20 03:44:05;;;;;;;;;;;12.50;99.90;;;;;;5075363;28;20390;-74
2021/09/20 03:46:37;;;;;;;;;;;12.50;99.90;;;;;;5075703;28;19924;-73
2021/09/20 03:49:08;;;;;;;;;;;12.60;99.90;;;;;;5093690;28;19924;-73
2021/09/20 03:51:40;;;;;;;;;;;12.60;99.90;;;;;;5075868;28;19963;-73
2021/09/20 03:54:07;;;;;;;;;;;12.50;99.90;;;;;;5074641;28;20178;-73
2021/09/20 03:56:39;;;;;;;;;;;12.50;99.90;;;;;;5092566;28;19931;-74
2021/09/20 03:59:05;;;;;;;;;;;12.50;99.90;;;;;;5074189;28;19924;-73
2021/09/20 04:01:32;;;;;;;;;;;12.40;99.90;;;;;;5074875;28;20474;-73
2021/09/20 04:03:58;;;;;;;;;;;12.40;99.90;;;;;;5074818;28;20390;-75
2021/09/20 04:06:25;;;;;;;;;;;12.40;99.90;;;;;;5092810;28;19925;-73
2021/09/20 04:08:54;;;;;;;;;;;12.40;99.90;;;;;;5074500;28;20361;-72
2021/09/20 04:11:20;;;;;;;;;;;12.40;99.90;;;;;;5074125;28;19963;-73
2021/09/20 04:13:52;;;;;;;;;;;12.40;99.90;;;;;;5073897;28;19925;-73
2021/09/20 04:16:24;;;;;;;;;;;12.50;99.90;;;;;;5086395;28;20393;-73
2021/09/20 04:18:50;;;;;;;;;;;12.50;99.90;;;;;;5092889;28;19930;-73
2021/09/20 04:21:17;;;;;;;;;;;12.50;99.90;;;;;;5094368;28;20002;-73
2021/09/20 04:23:44;;;;;;;;;;;12.50;99.90;;;;;;5073481;28;19928;-73
2021/09/20 04:26:16;;;;;;;;;;;12.50;99.90;;;;;;5092661;28;19959;-74
2021/09/20 04:28:43;;;;;;;;;;;12.60;99.90;;;;;;5092138;28;20023;-73
2021/09/20 04:31:14;;;;;;;;;;;12.50;99.90;;;;;;5074074;28;19928;-73
2021/09/20 04:33:41;;;;;;;;;;;12.50;99.90;;;;;;5073204;28;20298;-73
2021/09/20 04:36:08;;;;;;;;;;;12.50;99.90;;;;;;5074044;28;19974;-73
2021/09/20 04:38:41;;;;;;;;;;;12.50;99.90;;;;;;5058742;28;19924;-74
2021/09/20 04:41:07;;;;;;;;;;;12.50;99.90;;;;;;5073987;28;19959;-74
2021/09/20 04:43:34;;;;;;;;;;;12.50;99.90;;;;;;5073889;28;19932;-73
2021/09/20 04:46:06;;;;;;;;;;;12.40;99.90;;;;;;5073452;28;19931;-73
2021/09/20 04:48:32;;;;;;;;;;;12.50;99.90;;;;;;5074102;28;19927;-73
2021/09/20 04:51:05;;;;;;;;;;;12.50;99.90;;;;;;5073754;28;19927;-73
2021/09/20 04:53:36;;;;;;;;;;;12.50;99.90;;;;;;5091949;28;20024;-73
2021/09/20 04:56:08;;;;;;;;;;;12.50;99.90;;;;;;5091430;28;19924;-74
2021/09/20 04:58:35;;;;;;;;;;;12.50;99.90;;;;;;5073242;28;19986;-74
2021/09/20 05:01:02;;;;;;;;;;;12.50;99.90;;;;;;5091707;28;20198;-74
2021/09/20 05:03:34;;;;;;;;;;;12.50;99.90;;;;;;5073587;28;20250;-73
2021/09/20 05:06:01;;;;;;;;;;;12.50;99.90;;;;;;5089262;28;19974;-74
2021/09/20 05:08:27;;;;;;;;;;;12.50;99.90;;;;;;5090061;28;19964;-74
2021/09/20 05:10:59;;;;;;;;;;;12.50;99.90;;;;;;5074735;28;19975;-73
2021/09/20 05:13:27;;;;;;;;;;;12.60;99.90;;;;;;5056672;28;19963;-73
2021/09/20 05:15:54;;;;;;;;;;;12.60;99.90;;;;;;5073266;28;20287;-73
2021/09/20 05:18:26;;;;;;;;;;;12.60;99.90;;;;;;5073222;28;20507;-73
2021/09/20 05:20:53;;;;;;;;;;;12.60;99.90;;;;;;5073067;28;19960;-74
2021/09/20 05:23:24;;;;;;;;;;;12.60;99.90;;;;;;5073696;28;19928;-74
2021/09/20 05:25:56;;;;;;;;;;;12.60;99.90;;;;;;5073234;28;19924;-73
2021/09/20 05:28:23;;;;;;;;;;;12.60;99.90;;;;;;5073679;28;19924;-73
2021/09/20 05:30:55;;;;;;;;;;;12.60;99.90;;;;;;5057756;28;19928;-73
2021/09/20 05:33:26;;;;;;;;;;;12.60;99.90;;;;;;5073649;28;20022;-74
2021/09/20 05:35:53;;;;;;;;;;;12.60;99.90;;;;;;5073175;28;19928;-73
2021/09/20 05:38:20;;;;;;;;;;;12.60;99.90;;;;;;5073430;28;19963;-73
2021/09/20 05:40:47;;;;;;;;;;;12.60;99.90;;;;;;5073462;28;19924;-73
2021/09/20 05:43:14;;;;;;;;;;;12.60;99.90;;;;;;5073737;28;19924;-73
2021/09/20 05:45:45;;;;;;;;;;;12.60;99.90;;;;;;5074467;28;20301;-74
2021/09/20 05:48:15;;;;;;;;;;;12.70;99.90;;;;;;5073478;28;19959;-73
2021/09/20 05:50:51;;;;;;;;;;;12.70;99.90;;;;;;5074588;28;20601;-73
2021/09/20 05:53:24;;;;;;;;;;;12.70;99.90;;;;;;5073437;28;20031;-73
2021/09/20 05:55:50;;;;;;;;;;;12.70;99.90;;;;;;5090902;28;19924;-73
2021/09/20 05:58:17;;;;;;;;;;;12.80;99.90;;;;;;5073311;28;19955;-73
2021/09/20 06:00:50;;;;;;;;;;;12.70;99.90;;;;;;5074269;28;20384;-73
2021/09/20 06:03:22;;;;;;;;;;;12.70;99.90;;;;;;5057279;28;19928;-73
2021/09/20 06:05:49;;;;;;;;;;;12.70;99.90;;;;;;5090834;28;20026;-73
2021/09/20 06:08:16;;;;;;;;;;;12.70;99.90;;;;;;5073095;28;19954;-73
2021/09/20 06:10:49;;;;;;;;;;;12.70;99.90;;;;;;5091274;28;20497;-73
2021/09/20 06:13:21;;;;;;;;;;;12.80;99.90;;;;;;5074353;28;19954;-72
2021/09/20 06:15:47;;;;;;;;;;;12.80;99.90;;;;;;5056038;28;20473;-73
2021/09/20 06:18:19;;;;;;;;;;;12.80;99.90;;;;;;5074217;28;20015;-71
2021/09/20 06:20:56;;;;;;;;;;;12.80;99.90;;;;;;5074025;28;19924;-72
2021/09/20 06:23:22;;;;;;;;;;;12.80;99.90;;;;;;5076758;28;20023;-73
2021/09/20 06:25:54;;;;;;;;;;;12.80;99.90;;;;;;5077228;28;19924;-73
2021/09/20 06:28:21;;;;;;;;;;;12.80;99.90;;;;;;5076923;28;20019;-73
2021/09/20 06:30:48;;;;;;;;;;;12.90;99.90;;;;;;5076406;28;19924;-73
2021/09/20 06:33:20;;;;;;;;;;;12.90;99.90;;;;;;5076499;28;19924;-73
2021/09/20 06:35:55;;;;;;;;;;;12.90;99.90;;;;;;5076323;28;19923;-73
2021/09/20 06:38:27;;;;;;;;;;;12.90;99.90;;;;;;5091115;28;19927;-73
2021/09/20 06:40:59;;;;;;;;;;;12.90;99.90;;;;;;5060706;28;19924;-71
2021/09/20 06:43:30;;;;;;;;;;;13.00;99.90;;;;;;5093393;28;19928;-71
2021/09/20 06:45:57;;;;;;;;;;;13.30;99.90;;;;;;5075874;28;20015;-72
2021/09/20 06:48:24;;;;;;;;;;;13.50;99.90;;;;;;5076714;28;19925;-73
2021/09/20 06:50:55;;;;;;;;;;;13.60;99.90;;;;;;5059848;28;19967;-73
2021/09/20 06:53:27;;;;;;;;;;;13.60;99.90;;;;;;5093646;28;19938;-72
2021/09/20 06:55:59;;;;;;;;;;;13.50;99.90;;;;;;5075284;28;19986;-73
2021/09/20 06:58:25;;;;;;;;;;;13.50;99.90;;;;;;5075654;28;19935;-72
2021/09/20 07:00:52;;;;;;;;;;;13.40;99.90;;;;;;5075465;28;19924;-73
2021/09/20 07:03:25;;;;;;;;;;;13.40;99.90;;;;;;5076443;28;20037;-73
2021/09/20 07:05:56;;;;;;;;;;;13.40;99.90;;;;;;5059253;28;20023;-73
2021/09/20 07:08:23;;;;;;;;;;;13.30;99.90;;;;;;5075338;28;19946;-73
2021/09/20 07:10:50;;;;;;;;;;;13.40;99.90;;;;;;5075238;28;19924;-73
2021/09/20 07:13:16;;;;;;;;;;;13.40;99.90;;;;;;5075688;28;20019;-73
2021/09/20 07:15:43;;;;;;;;;;;13.30;99.90;;;;;;5092771;28;19930;-73
2021/09/20 07:18:10;;;;;;;;;;;13.40;99.90;;;;;;5058965;28;20395;-72
2021/09/20 07:20:37;;;;;;;;;;;13.40;99.90;;;;;;5074923;28;19955;-73
2021/09/20 07:23:04;;;;;;;;;;;13.40;99.90;;;;;;5075171;28;19928;-73
2021/09/20 07:25:36;;;;;;;;;;;13.40;99.90;;;;;;5058460;28;20461;-73
2021/09/20 07:28:11;;;;;;;;;;;13.40;99.90;;;;;;5078302;28;19924;-72
2021/09/20 07:30:44;;;;;;;;;;;13.40;99.90;;;;;;5113023;28;19978;-73
2021/09/20 07:33:15;;;;;;;;;;;13.30;99.90;;;;;;5095974;27;19964;-73
2021/09/20 07:35:42;;;;;;;;;;;13.40;99.90;;;;;;5114423;27;19974;-73
2021/09/20 07:38:14;;;;;;;;;;;13.40;99.90;;;;;;5133545;27;20465;-73
2021/09/20 07:40:48;;;;;;;;;;;13.40;99.90;;;;;;5115980;27;19923;-73
2021/09/20 07:43:14;;;;;;;;;;;13.40;99.90;;;;;;5098103;27;20019;-73
2021/09/20 07:45:46;;;;;;;;;;;13.40;99.90;;;;;;5098341;27;20207;-73
2021/09/20 07:48:20;;;;;;;;;;;13.40;99.90;;;;;;5133223;27;19924;-73
2021/09/20 07:50:53;;;;;;;;;;;13.50;99.90;;;;;;5098845;27;19923;-73
2021/09/20 07:53:20;;;;;;;;;;;13.40;99.90;;;;;;5097859;27;19927;-73
2021/09/20 07:55:51;;;;;;;;;;;13.50;99.90;;;;;;5132869;27;20014;-73
2021/09/20 07:58:23;;;;;;;;;;;13.50;99.90;;;;;;5098044;27;19923;-71
2021/09/20 08:00:50;;;;;;;;;;;13.50;99.90;;;;;;5073895;28;19924;-73
2021/09/20 08:03:22;;;;;;;;;;;13.50;99.90;;;;;;5092024;28;20337;-73
2021/09/20 08:05:54;;;;;;;;;;;13.50;99.90;;;;;;5091892;28;20341;-73
2021/09/20 08:08:22;;;;;;;;;;;13.50;99.90;;;;;;5074415;28;19924;-72
2021/09/20 08:10:49;;;;;;;;;;;13.50;99.90;;;;;;5091738;28;20027;-73
2021/09/20 08:13:16;;;;;;;;;;;13.50;99.90;;;;;;5057286;28;20372;-73
2021/09/20 08:15:45;;;;;;;;;;;13.60;99.90;;;;;;5073594;28;20023;-73
2021/09/20 08:18:17;;;;;;;;;;;13.50;99.90;;;;;;5092360;28;19924;-73
2021/09/20 08:20:50;;;;;;;;;;;13.60;99.90;;;;;;5058726;28;20402;-73
2021/09/20 08:23:19;;;;;;;;;;;13.60;99.90;;;;;;5092105;28;20042;-73
2021/09/20 08:25:51;;;;;;;;;;;13.60;99.90;;;;;;5072964;28;19930;-73
2021/09/20 08:28:23;;;;;;;;;;;13.70;99.90;;;;;;5073681;28;19924;-73
2021/09/20 08:30:56;;;;;;;;;;;13.60;99.90;;;;;;5073086;28;20200;-73
2021/09/20 08:33:23;;;;;;;;;;;13.70;99.90;;;;;;5091920;28;19924;-73
2021/09/20 08:35:55;;;;;;;;;;;13.70;99.90;;;;;;5091171;28;20030;-73
2021/09/20 08:38:27;;;;;;;;;;;13.70;99.90;;;;;;5074477;28;19928;-73
2021/09/20 08:40:54;;;;;;;;;;;13.70;99.90;;;;;;5073608;28;19989;-73
2021/09/20 08:43:27;;;;;;;;;;;13.80;99.90;;;;;;5074054;28;19928;-73
2021/09/20 08:46:01;;;;;;;;;;;13.80;99.90;;;;;;5073011;28;20026;-72
2021/09/20 08:48:35;;;;;;;;;;;13.80;99.90;;;;;;5091355;28;19975;-73
2021/09/20 08:51:07;;;;;;;;;;;13.80;99.90;;;;;;5091331;28;20394;-73
2021/09/20 08:53:39;;;;;;;;;;;13.90;99.90;;;;;;5074004;28;19981;-73
2021/09/20 08:56:11;;;;;;;;;;;13.90;99.90;;;;;;5073931;28;19924;-73
2021/09/20 08:58:38;;;;;;;;;;;13.90;99.90;;;;;;5074286;28;19930;-73
2021/09/20 09:01:09;;;;;;;;;;;14.00;99.90;;;;;;5093191;28;19923;-73
2021/09/20 09:03:36;;;;;;;;;;;14.00;99.90;;;;;;5093606;28;19966;-73
2021/09/20 09:06:04;;;;;;;;;;;14.00;99.90;;;;;;5094066;28;19924;-72
2021/09/20 09:08:36;;;;;;;;;;;14.00;99.90;;;;;;5077874;28;19924;-72
2021/09/20 09:11:13;;;;;;;;;;;14.00;99.90;;;;;;5111997;28;20458;-73
2021/09/20 09:13:46;;;;;;;;;;;14.00;99.90;;;;;;5093921;28;20000;-72
2021/09/20 09:16:19;;;;;;;;;;;14.10;99.90;;;;;;5077101;28;19924;-73
2021/09/20 09:18:58;;;;;;;;;;;14.10;99.90;;;;;;5093886;28;19924;-73
2021/09/20 09:21:32;;;;;;;;;;;14.10;99.90;;;;;;5077687;28;20332;-73
2021/09/20 09:24:04;;;;;;;;;;;14.20;99.90;;;;;;5093580;28;20386;-73
2021/09/20 09:26:36;;;;;;;;;;;14.20;99.90;;;;;;5112023;28;19951;-72
2021/09/20 09:29:07;;;;;;;;;;;14.20;99.90;;;;;;5077029;28;19947;-73
2021/09/20 09:31:50;;;;;;;;;;;14.30;99.90;;;;;;5094629;28;19967;-73
2021/09/20 09:34:19;;;;;;;;;;;14.40;99.90;;;;;;5093496;28;19924;-73
2021/09/20 09:36:51;;;;;;;;;;;14.40;99.90;;;;;;5111894;28;20353;-73
2021/09/20 09:39:27;;;;;;;;;;;14.40;99.90;;;;;;5077520;28;20275;-73
2021/09/20 09:41:54;;;;;;;;;;;14.40;99.90;;;;;;5093490;28;19959;-73
2021/09/20 09:44:28;;;;;;;;;;;14.50;99.90;;;;;;5094664;28;19924;-73
2021/09/20 09:46:55;;;;;;;;;;;14.50;99.90;;;;;;5112532;28;19978;-73
2021/09/20 09:49:23;;;;;;;;;;;14.60;99.90;;;;;;5076769;28;19970;-73
2021/09/20 09:52:10;;;;;;;;;;;14.60;99.90;;;;;;5094470;28;20192;-72
2021/09/20 09:54:42;;;;;;;;;;;14.60;99.90;;;;;;5093211;28;19931;-73
2021/09/20 09:57:11;;;;;;;;;;;14.70;99.90;;;;;;5115652;28;19981;-73
2021/09/20 09:59:38;;;;;;;;;;;14.80;99.90;;;;;;5080540;28;19946;-73
2021/09/20 10:02:16;;;;;;;;;;;14.80;99.90;;;;;;5081290;28;19923;-73
2021/09/20 10:04:54;;;;;;;;;;;14.90;99.90;;;;;;5080094;28;20022;-73
2021/09/20 10:07:28;;;;;;;;;;;15.00;99.90;;;;;;5097443;28;19975;-73
2021/09/20 10:10:01;;;;;;;;;;;15.00;99.90;;;;;;5080583;28;20400;-73
2021/09/20 10:12:32;;;;;;;;;;;15.10;99.90;;;;;;5097648;28;20394;-73
2021/09/20 10:15:05;;;;;;;;;;;15.10;99.90;;;;;;5080908;28;20358;-73
2021/09/20 10:17:37;;;;;;;;;;;15.10;99.90;;;;;;5115737;28;20418;-73
2021/09/20 10:20:06;;;;;;;;;;;15.10;99.90;;;;;;5080348;28;19973;-73
2021/09/20 10:22:37;;;;;;;;;;;15.10;99.90;;;;;;5098203;28;19923;-73
2021/09/20 10:25:05;;;;;;;;;;;15.10;99.90;;;;;;5079839;28;20002;-73
2021/09/20 10:27:33;;;;;;;;;;;15.10;99.90;;;;;;5097262;28;19960;-73
2021/09/20 10:30:11;;;;;;;;;;;15.10;99.90;;;;;;5098039;28;19930;-73
2021/09/20 10:32:42;;;;;;;;;;;15.00;99.90;;;;;;5097121;28;19962;-73
2021/09/20 10:35:22;;;;;;;;;;;15.10;99.90;;;;;;5114944;28;19930;-73
2021/09/20 10:37:55;;;;;;;;;;;15.10;99.90;;;;;;5080859;28;19928;-73
2021/09/20 10:40:28;;;;;;;;;;;15.10;99.90;;;;;;5097630;28;20014;-73
2021/09/20 10:43:02;;;;;;;;;;;15.10;99.90;;;;;;5097964;28;19923;-73
2021/09/20 10:45:38;;;;;;;;;;;15.20;99.90;;;;;;5079584;28;20018;-73
2021/09/20 10:48:14;;;;;;;;;;;15.20;99.90;;;;;;5096779;28;19963;-73
2021/09/20 10:51:01;;;;;;;;;;;15.20;99.90;;;;;;5096813;28;19963;-73
2021/09/20 10:53:33;;;;;;;;;;;15.20;99.90;;;;;;5114784;28;19934;-72
2021/09/20 10:56:03;;;;;;;;;;;15.20;99.90;;;;;;5096409;28;20101;-73
2021/09/20 10:58:36;;;;;;;;;;;15.20;99.90;;;;;;5097493;28;20011;-73
2021/09/20 11:01:11;;;;;;;;;;;15.30;99.90;;;;;;5080363;28;19928;-73
2021/09/20 11:03:40;;;;;;;;;;;15.30;99.90;;;;;;5096376;28;20445;-73
2021/09/20 11:06:26;;;;;;;;;;;15.40;99.90;;;;;;5095729;28;19924;-73
2021/09/20 11:08:57;;;;;;;;;;;15.40;99.90;;;;;;5096209;28;19934;-73
2021/09/20 11:11:44;;;;;;;;;;;15.40;99.90;;;;;;5097274;28;19930;-73
2021/09/20 11:14:18;;;;;;;;;;;15.50;99.90;;;;;;5096187;28;20447;-73
2021/09/20 11:16:52;;;;;;;;;;;15.60;99.90;;;;;;5096165;28;20026;-73
2021/09/20 11:19:29;;;;;;;;;;;15.70;99.90;;;;;;5096178;28;20006;-73
2021/09/20 11:22:13;;;;;;;;;;;15.70;99.90;;;;;;5096035;28;19923;-73
2021/09/20 11:24:46;;;;;;;;;;;15.80;99.90;;;;;;5079293;28;19924;-73
2021/09/20 11:27:28;;;;;;;;;;;15.80;99.90;;;;;;5079185;28;20022;-73
2021/09/20 11:30:02;;;;;;;;;;;15.90;99.90;;;;;;5079707;28;19930;-73
2021/09/20 11:32:29;;;;;;;;;;;15.90;99.90;;;;;;5078886;28;20449;-73
2021/09/20 11:35:00;;;;;;;;;;;15.90;99.90;;;;;;5095442;28;19934;-73
2021/09/20 11:37:33;;;;;;;;;;;15.90;99.90;;;;;;5096543;28;19934;-73
2021/09/20 11:40:06;;;;;;;;;;;16.00;99.90;;;;;;5096259;28;19928;-73
2021/09/20 11:42:38;;;;;;;;;;;16.10;99.90;;;;;;5095598;28;19934;-73
2021/09/20 11:45:12;;;;;;;;;;;16.10;99.90;;;;;;5078970;28;19924;-73
2021/09/20 11:47:41;;;;;;;;;;;16.10;99.90;;;;;;5078370;28;20006;-73
2021/09/20 11:50:17;;;;;;;;;;;16.10;99.90;;;;;;5095314;28;19924;-73
2021/09/20 11:53:10;;;;;;;;;;;16.10;99.90;;;;;;5095134;28;20402;-73
2021/09/20 11:55:45;;;;;;;;;;;16.20;99.90;;;;;;5096202;28;19930;-73
2021/09/20 11:58:14;;;;;;;;;;;16.20;99.90;;;;;;5078728;28;19993;-73
2021/09/20 12:00:46;;;;;;;;;;;16.20;99.90;;;;;;5079363;28;20038;-73
2021/09/20 12:03:22;;;;;;;;;;;16.20;99.90;;;;;;5100808;27;20029;-73
2021/09/20 12:05:49;;;;;;;;;;;16.30;99.90;;;;;;5098646;27;19973;-73
2021/09/20 12:08:17;;;;;;;;;;;16.30;99.90;;;;;;5115681;27;20017;-73
2021/09/20 12:10:46;;;;;;;;;;;16.30;99.90;;;;;;5107890;28;19931;-73
2021/09/20 12:13:20;;;;;;;;;;;16.30;99.90;;;;;;5092945;28;19923;-73
2021/09/20 12:15:54;;;;;;;;;;;16.40;99.90;;;;;;5092500;28;19924;-73
2021/09/20 12:18:26;;;;;;;;;;;16.40;99.90;;;;;;5078029;28;19924;-73
2021/09/20 12:20:59;;;;;;;;;;;16.40;99.90;;;;;;5079192;28;19923;-73
2021/09/20 12:23:32;;;;;;;;;;;16.50;99.90;;;;;;5095401;28;19930;-73
2021/09/20 12:26:07;;;;;;;;;;;16.40;99.90;;;;;;5096549;28;20097;-73
2021/09/20 12:28:42;;;;;;;;;;;16.40;99.90;;;;;;5114377;28;19930;-73
2021/09/20 12:31:24;;;;;;;;;;;16.40;99.90;;;;;;5112595;28;19930;-73
2021/09/20 12:34:01;;;;;;;;;;;16.40;99.90;;;;;;5077467;28;20351;-72
2021/09/20 12:36:29;;;;;;;;;;;16.40;99.90;;;;;;5093251;28;20283;-73
2021/09/20 12:39:01;;;;;;;;;;;16.40;99.90;;;;;;5095026;28;19969;-72
2021/09/20 12:41:37;;;;;;;;;;;16.40;99.90;;;;;;5094612;28;19927;-72
2021/09/20 12:44:10;;;;;;;;;;;16.50;99.90;;;;;;5077526;28;19938;-73
2021/09/20 12:46:41;;;;;;;;;;;16.50;99.90;;;;;;5112344;28;20383;-72
2021/09/20 12:49:09;;;;;;;;;;;16.50;99.90;;;;;;5094143;28;20011;-73
2021/09/20 12:51:41;;;;;;;;;;;16.40;99.90;;;;;;5094989;28;19923;-73
2021/09/20 12:54:32;;;;;;;;;;;16.50;99.90;;;;;;5077651;28;19930;-73
2021/09/20 12:57:19;;;;;;;;;;;16.50;99.90;;;;;;5094465;28;20031;-74
2021/09/20 13:00:04;;;;;;;;;;;16.60;99.90;;;;;;5078011;28;20398;-73
2021/09/20 13:02:37;;;;;;;;;;;16.60;99.90;;;;;;5077564;28;19930;-71
2021/09/20 13:05:11;;;;;;;;;;;16.70;99.90;;;;;;5093614;28;20035;-72
2021/09/20 13:07:43;;;;;;;;;;;16.70;99.90;;;;;;5095043;28;19926;-73
2021/09/20 13:10:18;;;;;;;;;;;16.70;99.90;;;;;;5078064;28;19924;-73
2021/09/20 13:12:54;;;;;;;;;;;16.70;99.90;;;;;;5095024;28;19930;-73
2021/09/20 13:15:22;;;;;;;;;;;16.70;99.90;;;;;;5093124;28;20046;-72
2021/09/20 13:17:55;;;;;;;;;;;16.70;99.90;;;;;;5111166;28;20574;-73
2021/09/20 13:20:31;;;;;;;;;;;16.80;99.90;;;;;;5094885;28;19959;-72
2021/09/20 13:23:08;;;;;;;;;;;16.80;99.90;;;;;;5094960;28;19923;-73
2021/09/20 13:25:43;;;;;;;;;;;16.70;99.90;;;;;;5111728;28;19959;-73
2021/09/20 13:28:18;;;;;;;;;;;16.70;99.90;;;;;;5077951;28;20386;-73
2021/09/20 13:30:51;;;;;;;;;;;16.70;99.90;;;;;;5116360;28;19932;-73
2021/09/20 13:33:23;;;;;;;;;;;16.60;99.90;;;;;;5099583;28;19930;-73
2021/09/20 13:35:57;;;;;;;;;;;16.60;99.90;;;;;;5096124;28;19946;-72
2021/09/20 13:38:25;;;;;;;;;;;16.60;99.90;;;;;;5099922;28;19928;-72
2021/09/20 13:40:52;;;;;;;;;;;16.60;99.90;;;;;;5096974;28;20023;-72
2021/09/20 13:43:25;;;;;;;;;;;16.70;99.90;;;;;;5083469;28;19927;-73
2021/09/20 13:45:53;;;;;;;;;;;16.70;99.90;;;;;;5096481;28;19931;-72
2021/09/20 13:48:20;;;;;;;;;;;16.70;99.90;;;;;;5117377;28;20154;-73
2021/09/20 13:50:52;;;;;;;;;;;16.70;99.90;;;;;;5063721;28;19924;-73
2021/09/20 13:53:19;;;;;;;;;;;16.80;99.90;;;;;;5082456;28;19924;-73
2021/09/20 13:55:51;;;;;;;;;;;16.90;99.90;;;;;;5098257;28;19974;-73
2021/09/20 13:58:23;;;;;;;;;;;16.80;99.90;;;;;;5100273;28;19967;-73
2021/09/20 14:00:55;;;;;;;;;;;16.80;99.90;;;;;;5083904;28;20234;-73
2021/09/20 14:03:26;;;;;;;;;;;16.90;99.90;;;;;;5099827;28;19924;-73
2021/09/20 14:05:53;;;;;;;;;;;16.90;99.90;;;;;;5083079;28;20496;-73
2021/09/20 14:08:25;;;;;;;;;;;17.00;99.90;;;;;;5118594;28;19924;-73
2021/09/20 14:10:57;;;;;;;;;;;17.00;99.90;;;;;;5100285;28;19930;-73
2021/09/20 14:13:29;;;;;;;;;;;17.10;99.90;;;;;;5084044;28;19924;-73
2021/09/20 14:15:56;;;;;;;;;;;17.10;99.90;;;;;;5099618;28;20079;-73
2021/09/20 14:18:27;;;;;;;;;;;17.10;99.90;;;;;;5083492;28;19946;-73
2021/09/20 14:20:59;;;;;;;;;;;17.00;99.90;;;;;;5083013;28;19930;-73
2021/09/20 14:23:26;;;;;;;;;;;17.00;99.90;;;;;;5082254;28;19957;-73
2021/09/20 14:25:57;;;;;;;;;;;17.00;99.90;;;;;;5099253;28;19924;-73
2021/09/20 14:28:24;;;;;;;;;;;17.00;99.90;;;;;;5099158;28;20004;-73
2021/09/20 14:30:56;;;;;;;;;;;17.00;99.90;;;;;;5098920;28;20010;-72
2021/09/20 14:33:22;;;;;;;;;;;16.90;99.90;;;;;;5117221;27;20421;-72
2021/09/20 14:35:54;;;;;;;;;;;16.90;99.90;;;;;;5098609;28;19924;-72
2021/09/20 14:38:25;;;;;;;;;;;17.00;99.90;;;;;;5114855;28;19934;-72